Airfield :
LOGIN :

Register | Disclaimer

   EN    FR    IT 

 










Legend :    VFR   Marginal VFR   IFR   Intensive IFR   Very Intensive IFR
Visi :
Ceiling :
>= 8 km
>= 3000ft
5 to 8 km
1000 to 3000 ft
1500m to 5 km
500 to 1000 ft
800 to 1500m
200 to 500 ft
< 800m
< 200 ft
Symbols :   Thunderstorms  Fog  Heavy snow  Heavy precipitations  Wind > 20 kt
SIGMETs :     Misc.  Thunderstorms  Icing  Turbulence  Mountain Waves  Volcanic Ashes






- Airport Elevation : 1 ft


EGCK - Caernarfon

CURRENT METAR :
  • 152050Z AUTO 01012KT 9999 FEW041/// 08/05 Q1010

EXPIRED METARs :
  • 152020Z AUTO 02012KT 9999 FEW019/// SCT034/// 08/05 Q1010
  • 151950Z AUTO 01012KT 9999 NCD 08/05 Q1010
  • 151920Z AUTO 02012KT 9999 SCT019/// SCT035/// BKN043/// 08/05 Q1010
  • 151850Z AUTO 01012KT 9999 SCT023/// BKN033/// 08/05 Q1010
  • 151820Z AUTO 36012KT 9999 SCT048/// 07/05 Q1010

TAF TAF EGCK
Valid from the 15 at 21:00 until the 16 at 06:00 UTC


151958Z 1521/1606 02011KT 9999 FEW020



MET'MAP, your aeronautical weather chart ! - Copyright ORBIFLY December 2007 - Disclaimer

ORBIFLY MET'MAP TEAM :

Programming & Development : Alexandra Zaïnal
Concept & Development : Baudouin d'Aumeries
Co-Development & Prog : Marc-Olivier Méhu
Technical & hardware support : Manuel Goepfert

Contact : metmap@orbifly.com




SOURCES & CREDITS :

   NOAA